Hummels Store, Pennsylvania
Current Conditions -  °F | °C
As of 6:54 AM on Sunday 23 Nov 2014 (Local Time) from KRDG Reporting Station
Overcast Overcast  
Wind Chill: 39°   Ceiling: 7000
Heat Index: 39°   Visibility: 10mi
Dew Point: 24°   Wind: 0mph
Humidity: 55%   Direction: NA
Pressure: 30.21"   Gusts: NA
Location:  40.2411°N, 75.9752°W
Report Text: KRDG 231154Z 00000KT 10SM BKN070 OVC110 04/M04 A3021 RMK AO2 SLP236 T00391044 10050 20022 53008
Loading
Personal Weather Stations






























Interactive Weather Map New forecast layout! Learn more

10-Day Weather Forecast

Advertisements
Track Severe Weather on mobile